createdAt,value
2022-11-14T00:00:06.092Z,65.85
2022-11-14T00:02:07.560Z,65.27
2022-11-14T00:04:08.869Z,65.26
2022-11-14T00:06:10.196Z,65.36
2022-11-14T00:08:11.532Z,65.43
2022-11-14T00:10:12.938Z,65.23
2022-11-14T00:12:14.247Z,64.98
2022-11-14T00:14:15.544Z,64.82
2022-11-14T00:16:16.939Z,64.94
2022-11-14T00:18:18.224Z,64.41
2022-11-14T00:20:19.546Z,64.57
2022-11-14T00:22:20.837Z,64.22
2022-11-14T00:24:22.118Z,64.39
2022-11-14T00:26:24.129Z,64.29
2022-11-14T00:28:25.434Z,64.01
2022-11-14T00:30:26.780Z,64.26
2022-11-14T00:32:28.121Z,64.35
2022-11-14T00:34:29.496Z,64.01
2022-11-14T00:36:30.810Z,63.96
2022-11-14T00:38:32.379Z,64.29
2022-11-14T00:40:33.800Z,64.34
2022-11-14T00:42:35.239Z,64.17
2022-11-14T00:44:36.579Z,64.60
2022-11-14T00:46:38.638Z,64.58
2022-11-14T00:48:40.126Z,64.61
2022-11-14T00:50:41.460Z,65.40
2022-11-14T00:52:42.735Z,64.65
2022-11-14T00:54:44.144Z,65.03
2022-11-14T00:56:45.422Z,65.13
2022-11-14T00:58:46.697Z,64.89
2022-11-14T01:00:48.113Z,65.29
2022-11-14T01:02:49.531Z,65.27
2022-11-14T01:04:50.858Z,65.61
2022-11-14T01:06:52.120Z,65.26
2022-11-14T01:08:53.430Z,65.45
2022-11-14T01:10:54.755Z,65.55
2022-11-14T01:12:56.078Z,65.61
2022-11-14T01:14:57.374Z,65.65
2022-11-14T01:16:58.655Z,66.13
2022-11-14T01:18:59.960Z,66.19
2022-11-14T01:21:01.274Z,66.24
2022-11-14T01:23:02.569Z,65.87
2022-11-14T01:25:03.862Z,66.26
2022-11-14T01:27:05.258Z,65.93
2022-11-14T01:29:06.556Z,66.22
2022-11-14T01:31:07.837Z,65.83
2022-11-14T01:33:09.184Z,66.11
2022-11-14T01:35:10.489Z,66.07
2022-11-14T01:37:11.832Z,65.76
2022-11-14T01:39:13.334Z,65.60
2022-11-14T01:41:14.942Z,65.36
2022-11-14T01:43:16.322Z,65.13
2022-11-14T01:45:17.645Z,64.71
2022-11-14T01:47:19.260Z,64.34
2022-11-14T01:49:20.549Z,64.25
2022-11-14T01:51:21.847Z,64.59
2022-11-14T01:53:23.154Z,63.97
2022-11-14T01:55:24.503Z,64.27
2022-11-14T01:57:25.803Z,63.70
2022-11-14T01:59:27.134Z,63.67
2022-11-14T02:01:28.475Z,64.24
2022-11-14T02:03:29.824Z,63.87
2022-11-14T02:05:31.228Z,64.03
2022-11-14T02:07:32.590Z,63.95
2022-11-14T02:09:34.042Z,64.14
2022-11-14T02:11:35.329Z,64.06
2022-11-14T02:13:36.687Z,64.07
2022-11-14T02:15:38.093Z,64.05
2022-11-14T02:17:39.426Z,64.46
2022-11-14T02:19:40.726Z,64.44
2022-11-14T02:21:42.001Z,64.90
2022-11-14T02:23:43.285Z,64.77
2022-11-14T02:25:44.609Z,65.27
2022-11-14T02:27:45.877Z,65.53
2022-11-14T02:29:47.170Z,65.56
2022-11-14T02:31:48.473Z,65.69
2022-11-14T02:33:49.758Z,65.58
2022-11-14T02:35:51.068Z,65.59
2022-11-14T02:37:52.457Z,66.06
2022-11-14T02:39:53.937Z,66.04
2022-11-14T02:41:55.272Z,65.89
2022-11-14T02:43:56.546Z,66.19
2022-11-14T02:46:01.503Z,66.23
2022-11-14T02:48:06.730Z,66.29
2022-11-14T02:50:08.049Z,65.73
2022-11-14T02:52:09.338Z,65.67
2022-11-14T02:54:10.676Z,65.87
2022-11-14T02:56:11.962Z,65.78
2022-11-14T02:58:13.238Z,66.00
2022-11-14T03:00:15.417Z,65.08
2022-11-14T03:02:16.988Z,65.16
2022-11-14T03:04:18.298Z,65.01
2022-11-14T03:06:19.625Z,64.57
2022-11-14T03:08:20.945Z,64.61
2022-11-14T03:10:22.289Z,64.20
2022-11-14T03:12:23.575Z,64.25
2022-11-14T03:14:24.873Z,63.82
2022-11-14T03:16:26.170Z,64.20
2022-11-14T03:18:27.815Z,63.70
2022-11-14T03:20:29.401Z,64.08
2022-11-14T03:22:30.718Z,64.03
2022-11-14T03:24:32.025Z,63.64
2022-11-14T03:26:33.335Z,63.65
2022-11-14T03:28:34.650Z,63.90
2022-11-14T03:30:35.941Z,63.81
2022-11-14T03:32:37.323Z,63.70
2022-11-14T03:34:38.626Z,63.70
2022-11-14T03:36:39.913Z,64.24
2022-11-14T03:38:41.259Z,64.34
2022-11-14T03:40:42.523Z,64.62
2022-11-14T03:42:43.805Z,64.86
2022-11-14T03:44:45.092Z,64.51
2022-11-14T03:46:46.420Z,65.06
2022-11-14T03:48:47.743Z,65.25
2022-11-14T03:50:49.037Z,65.33
2022-11-14T03:52:50.365Z,65.75
2022-11-14T03:54:51.861Z,65.78
2022-11-14T03:56:53.349Z,65.63
2022-11-14T03:58:54.685Z,66.11
2022-11-14T04:00:56.276Z,66.30
2022-11-14T04:02:57.634Z,66.32
2022-11-14T04:04:58.953Z,66.67
2022-11-14T04:07:00.305Z,66.66
2022-11-14T04:09:01.819Z,66.73
2022-11-14T04:11:03.099Z,66.61
2022-11-14T04:13:04.369Z,66.25
2022-11-14T04:15:05.679Z,66.36
2022-11-14T04:17:07.023Z,66.15
2022-11-14T04:19:08.310Z,66.11
2022-11-14T04:21:09.622Z,65.35
2022-11-14T04:23:10.902Z,65.72
2022-11-14T04:25:12.236Z,65.38
2022-11-14T04:27:13.525Z,64.96
2022-11-14T04:29:14.857Z,64.67
2022-11-14T04:31:16.161Z,64.23
2022-11-14T04:33:17.448Z,64.04
2022-11-14T04:35:18.809Z,63.80
2022-11-14T04:37:20.109Z,64.03
2022-11-14T04:39:21.422Z,63.79
2022-11-14T04:41:22.713Z,63.75
2022-11-14T04:43:24.069Z,63.63
2022-11-14T04:45:25.472Z,63.43
2022-11-14T04:47:26.805Z,63.59
2022-11-14T04:49:28.098Z,63.38
2022-11-14T04:51:29.446Z,63.74
2022-11-14T04:53:30.738Z,63.73
2022-11-14T04:55:32.021Z,63.81
2022-11-14T04:57:33.320Z,64.22
2022-11-14T04:59:34.821Z,64.10
2022-11-14T05:01:36.423Z,64.23
2022-11-14T05:03:38.234Z,64.25
2022-11-14T05:05:42.171Z,64.45
2022-11-14T05:07:43.714Z,64.92
2022-11-14T05:09:45.005Z,64.91
2022-11-14T05:11:46.385Z,59.35
2022-11-14T05:13:47.696Z,52.60
2022-11-14T05:15:48.981Z,52.65
2022-11-14T05:17:50.300Z,51.95
2022-11-14T05:19:51.593Z,50.66
2022-11-14T05:21:52.877Z,50.80
2022-11-14T05:23:54.350Z,51.22
2022-11-14T05:25:58.674Z,55.86
2022-11-14T05:28:00.449Z,54.16
2022-11-14T05:30:01.746Z,53.84
2022-11-14T05:32:03.219Z,54.00
2022-11-14T05:34:04.542Z,54.11
2022-11-14T05:36:05.838Z,54.12
2022-11-14T05:38:07.150Z,54.43
2022-11-14T05:40:08.553Z,54.73
2022-11-14T05:42:09.836Z,55.21
2022-11-14T05:44:11.136Z,55.37
2022-11-14T05:46:12.754Z,55.48
2022-11-14T05:48:14.048Z,55.39
2022-11-14T05:50:16.680Z,56.15
2022-11-14T05:52:17.956Z,56.16
2022-11-14T05:54:19.448Z,56.09
2022-11-14T05:56:20.884Z,56.15
2022-11-14T05:58:22.171Z,56.54
2022-11-14T06:00:23.475Z,56.68
2022-11-14T06:02:24.883Z,56.89
2022-11-14T06:04:26.208Z,56.73
2022-11-14T06:06:27.498Z,56.71
2022-11-14T06:08:29.726Z,57.27
2022-11-14T06:10:31.166Z,57.20
2022-11-14T06:12:32.624Z,57.07
2022-11-14T06:14:33.892Z,57.41
2022-11-14T06:16:35.197Z,57.10
2022-11-14T06:18:36.510Z,57.59
2022-11-14T06:20:37.987Z,57.37
2022-11-14T06:22:39.296Z,57.62
2022-11-14T06:24:40.618Z,57.45
2022-11-14T06:26:41.907Z,57.95
2022-11-14T06:28:43.283Z,58.27
2022-11-14T06:30:44.592Z,58.01
2022-11-14T06:32:45.878Z,58.53
2022-11-14T06:34:47.353Z,58.75
2022-11-14T06:36:48.635Z,58.88
2022-11-14T06:38:49.922Z,59.19
2022-11-14T06:40:51.513Z,59.10
2022-11-14T06:42:52.799Z,59.52
2022-11-14T06:44:54.089Z,59.71
2022-11-14T06:46:56.439Z,59.82
2022-11-14T06:48:57.752Z,59.75
2022-11-14T06:50:59.094Z,59.69
2022-11-14T06:53:00.367Z,59.92
2022-11-14T06:55:01.641Z,60.01
2022-11-14T06:57:02.962Z,60.08
2022-11-14T06:59:04.282Z,60.58
2022-11-14T07:01:06.043Z,60.34
2022-11-14T07:03:07.379Z,61.04
2022-11-14T07:05:08.749Z,60.81
2022-11-14T07:07:10.163Z,60.90
2022-11-14T07:09:11.529Z,61.04
2022-11-14T07:11:12.862Z,60.87
2022-11-14T07:13:14.197Z,60.83
2022-11-14T07:15:15.493Z,60.52
2022-11-14T07:17:16.787Z,60.23
2022-11-14T07:19:18.121Z,60.03
2022-11-14T07:21:19.454Z,59.85
2022-11-14T07:23:23.033Z,59.83
2022-11-14T07:25:24.484Z,59.58
2022-11-14T07:27:25.789Z,59.69
2022-11-14T07:29:27.074Z,59.66
2022-11-14T07:31:28.346Z,59.62
2022-11-14T07:33:29.758Z,59.53
2022-11-14T07:35:31.057Z,59.57
2022-11-14T07:37:32.355Z,59.32
2022-11-14T07:39:33.649Z,59.17
2022-11-14T07:41:34.957Z,59.22
2022-11-14T07:43:36.256Z,59.35
2022-11-14T07:45:37.582Z,59.50
2022-11-14T07:47:38.876Z,59.57
2022-11-14T07:49:40.181Z,59.33
2022-11-14T07:51:41.505Z,59.38
2022-11-14T07:53:42.788Z,59.37
2022-11-14T07:55:44.074Z,59.22
2022-11-14T07:57:49.242Z,59.29
2022-11-14T07:59:50.999Z,59.34
2022-11-14T08:01:52.289Z,59.65
2022-11-14T08:03:53.599Z,59.81
2022-11-14T08:05:55.603Z,59.92
2022-11-14T08:07:56.889Z,59.86
2022-11-14T08:09:58.287Z,59.75
2022-11-14T08:11:59.595Z,59.69
2022-11-14T08:14:00.880Z,60.25
2022-11-14T08:16:02.208Z,59.89
2022-11-14T08:18:03.584Z,60.20
2022-11-14T08:20:04.879Z,60.01
2022-11-14T08:22:06.165Z,60.11
2022-11-14T08:24:07.461Z,60.08
2022-11-14T08:26:09.625Z,60.08
2022-11-14T08:28:10.957Z,60.28
2022-11-14T08:30:12.286Z,60.12
2022-11-14T08:32:13.814Z,60.61
2022-11-14T08:34:15.118Z,60.38
2022-11-14T08:36:16.626Z,60.47
2022-11-14T08:38:17.952Z,60.33
2022-11-14T08:40:19.242Z,60.12
2022-11-14T08:42:20.534Z,60.21
2022-11-14T08:44:22.606Z,60.17
2022-11-14T08:46:23.930Z,60.06
2022-11-14T08:48:25.259Z,60.17
2022-11-14T08:50:26.620Z,60.23
2022-11-14T08:52:27.898Z,59.72
2022-11-14T08:54:29.237Z,59.71
2022-11-14T08:56:30.625Z,59.80
2022-11-14T08:58:32.557Z,59.81
2022-11-14T09:00:34.154Z,59.82
2022-11-14T09:02:35.488Z,59.44
2022-11-14T09:04:36.846Z,59.85
2022-11-14T09:06:38.239Z,59.43
2022-11-14T09:08:39.562Z,59.75
2022-11-14T09:10:40.881Z,59.28
2022-11-14T09:12:42.284Z,59.75
2022-11-14T09:14:43.569Z,59.49
2022-11-14T09:16:44.842Z,59.76
2022-11-14T09:18:46.269Z,59.78
2022-11-14T09:20:50.628Z,59.84
2022-11-14T09:22:55.305Z,59.58
2022-11-14T09:24:56.623Z,59.28
2022-11-14T09:26:57.912Z,59.69
2022-11-14T09:28:59.351Z,59.35
2022-11-14T09:31:00.690Z,59.77
2022-11-14T09:33:05.620Z,59.49
2022-11-14T09:35:09.885Z,59.41
2022-11-14T09:37:11.172Z,59.42
2022-11-14T09:39:12.582Z,59.75
2022-11-14T09:41:13.872Z,59.50
2022-11-14T09:43:15.157Z,59.49
2022-11-14T09:45:17.175Z,59.53
2022-11-14T09:47:20.997Z,59.93
2022-11-14T09:49:22.522Z,59.93
2022-11-14T09:51:23.872Z,59.86
2022-11-14T09:53:25.167Z,59.63
2022-11-14T09:55:26.448Z,60.12
2022-11-14T09:57:27.788Z,60.09
2022-11-14T09:59:29.090Z,59.99
2022-11-14T10:01:30.474Z,60.09
2022-11-14T10:03:32.323Z,59.85
2022-11-14T10:05:33.753Z,59.85
2022-11-14T10:07:37.996Z,59.58
2022-11-14T10:09:39.724Z,60.02
2022-11-14T10:11:41.010Z,59.67
2022-11-14T10:13:42.288Z,59.76
2022-11-14T10:15:43.609Z,59.97
2022-11-14T10:17:44.897Z,60.10
2022-11-14T10:19:46.308Z,59.72
2022-11-14T10:21:47.599Z,59.71
2022-11-14T10:23:48.927Z,59.46
2022-11-14T10:25:50.278Z,59.89
2022-11-14T10:27:56.544Z,59.96
2022-11-14T10:29:59.871Z,59.81
2022-11-14T10:32:01.397Z,59.44
2022-11-14T10:34:04.328Z,59.98
2022-11-14T10:36:05.935Z,59.88
2022-11-14T10:38:07.242Z,59.96
2022-11-14T10:40:08.597Z,59.50
2022-11-14T10:42:09.917Z,60.02
2022-11-14T10:44:11.200Z,60.16
2022-11-14T10:46:12.496Z,60.23
2022-11-14T10:48:13.828Z,60.05
2022-11-14T10:50:15.105Z,60.22
2022-11-14T10:52:16.427Z,60.13
2022-11-14T10:54:17.718Z,60.24
2022-11-14T10:56:19.237Z,59.98
2022-11-14T10:58:20.569Z,59.97
2022-11-14T11:00:23.139Z,60.04
2022-11-14T11:02:24.490Z,60.27
2022-11-14T11:04:26.205Z,59.93
2022-11-14T11:06:27.664Z,60.04
2022-11-14T11:08:47.817Z,60.15
2022-11-14T11:11:08.026Z,60.01
2022-11-14T11:13:09.312Z,60.23
2022-11-14T11:15:11.040Z,60.32
2022-11-14T11:17:12.529Z,60.09
2022-11-14T11:19:13.881Z,60.32
2022-11-14T11:21:15.320Z,60.18
2022-11-14T11:23:17.853Z,60.31
2022-11-14T11:25:19.141Z,60.43
2022-11-14T11:27:20.432Z,60.33
2022-11-14T11:29:21.759Z,60.12
2022-11-14T11:31:23.046Z,60.16
2022-11-14T11:33:24.372Z,60.27
2022-11-14T11:35:25.662Z,60.02
2022-11-14T11:37:27.044Z,60.04
2022-11-14T11:39:29.230Z,60.12
2022-11-14T11:42:07.238Z,60.10
2022-11-14T11:43:56.641Z,60.09
2022-11-14T11:45:58.424Z,60.22
2022-11-14T11:47:59.777Z,60.20
2022-11-14T11:50:02.188Z,60.07
2022-11-14T11:52:03.490Z,60.39
2022-11-14T11:54:04.812Z,60.26
2022-11-14T11:56:06.101Z,60.01
2022-11-14T11:58:07.448Z,60.10
2022-11-14T12:00:09.215Z,60.00
2022-11-14T12:02:13.088Z,60.54
2022-11-14T12:04:14.656Z,60.36
2022-11-14T12:06:15.978Z,60.04
2022-11-14T12:08:21.191Z,60.04
2022-11-14T12:10:23.000Z,60.13
2022-11-14T12:12:24.296Z,60.01
2022-11-14T12:14:25.578Z,60.01
2022-11-14T12:16:26.929Z,60.02
2022-11-14T12:18:28.213Z,60.07
2022-11-14T12:20:29.503Z,60.10
2022-11-14T12:22:30.855Z,60.23
2022-11-14T12:24:32.142Z,59.93
2022-11-14T12:26:33.439Z,59.89
2022-11-14T12:28:34.740Z,60.06
2022-11-14T12:30:36.026Z,59.97
2022-11-14T12:32:37.355Z,60.44
2022-11-14T12:34:38.624Z,60.18
2022-11-14T12:36:39.909Z,59.95
2022-11-14T12:38:42.221Z,59.63
2022-11-14T12:40:43.532Z,60.12
2022-11-14T12:42:44.816Z,59.98
2022-11-14T12:44:46.767Z,59.92
2022-11-14T12:46:48.048Z,60.14
2022-11-14T12:48:49.425Z,59.96
2022-11-14T12:50:50.877Z,60.42
2022-11-14T12:52:54.185Z,60.11
2022-11-14T12:54:55.467Z,60.37
2022-11-14T12:56:56.881Z,60.44
2022-11-14T12:58:58.185Z,60.26
2022-11-14T13:01:01.048Z,60.03
2022-11-14T13:03:02.329Z,60.26
2022-11-14T13:05:03.616Z,59.97
2022-11-14T13:07:04.965Z,60.19
2022-11-14T13:09:06.285Z,60.37
2022-11-14T13:11:07.818Z,59.85
2022-11-14T13:13:27.936Z,59.96
2022-11-14T13:15:49.453Z,60.03
2022-11-14T13:18:10.068Z,60.16
2022-11-14T13:20:30.273Z,60.14
2022-11-14T13:22:31.550Z,59.96
2022-11-14T13:24:32.846Z,60.01
2022-11-14T13:26:34.134Z,60.13
2022-11-14T13:28:35.416Z,60.26
2022-11-14T13:30:36.723Z,60.06
2022-11-14T13:32:38.028Z,59.73
2022-11-14T13:34:39.359Z,59.90
2022-11-14T13:36:40.650Z,59.70
2022-11-14T13:38:42.133Z,59.75
2022-11-14T13:40:44.830Z,59.78
2022-11-14T13:42:46.130Z,59.90
2022-11-14T13:44:47.602Z,60.16
2022-11-14T13:46:48.945Z,60.05
2022-11-14T13:48:50.233Z,60.33
2022-11-14T13:50:51.599Z,60.16
2022-11-14T13:52:52.875Z,60.28
2022-11-14T13:54:54.266Z,60.34
2022-11-14T13:56:55.626Z,60.35
2022-11-14T13:58:56.922Z,60.64
2022-11-14T14:00:58.235Z,60.52
2022-11-14T14:02:59.625Z,59.85
2022-11-14T14:05:00.904Z,60.16
2022-11-14T14:07:02.262Z,60.05
2022-11-14T14:09:03.669Z,60.18
2022-11-14T14:11:04.938Z,60.01
2022-11-14T14:13:06.226Z,60.07
2022-11-14T14:15:07.531Z,60.08
2022-11-14T14:17:08.834Z,59.88
2022-11-14T14:19:10.182Z,59.83
2022-11-14T14:21:14.294Z,60.09
2022-11-14T14:23:15.709Z,59.79
2022-11-14T14:25:17.013Z,59.87
2022-11-14T14:27:18.337Z,59.83
2022-11-14T14:29:19.655Z,59.75
2022-11-14T14:31:23.287Z,60.03
2022-11-14T14:33:24.582Z,59.97
2022-11-14T14:35:25.964Z,59.51
2022-11-14T14:37:27.268Z,59.95
2022-11-14T14:39:28.649Z,59.79
2022-11-14T14:41:29.962Z,59.65
2022-11-14T14:43:31.257Z,59.88
2022-11-14T14:45:32.618Z,59.85
2022-11-14T14:47:34.014Z,59.89
2022-11-14T14:49:35.300Z,59.40
2022-11-14T14:51:36.810Z,59.68
2022-11-14T14:53:38.098Z,59.47
2022-11-14T14:55:39.396Z,59.60
2022-11-14T14:57:40.699Z,59.73
2022-11-14T14:59:42.270Z,59.85
2022-11-14T15:01:43.671Z,59.29
2022-11-14T15:03:45.153Z,59.30
2022-11-14T15:05:46.461Z,59.65
2022-11-14T15:07:49.555Z,59.73
2022-11-14T15:09:50.856Z,59.41
2022-11-14T15:11:52.277Z,59.79
2022-11-14T15:13:53.593Z,59.92
2022-11-14T15:15:55.052Z,59.92
2022-11-14T15:17:56.497Z,59.49
2022-11-14T15:19:57.812Z,59.76
2022-11-14T15:21:59.098Z,59.71
2022-11-14T15:24:00.522Z,59.53
2022-11-14T15:26:01.908Z,59.99
2022-11-14T15:28:03.233Z,59.75
2022-11-14T15:30:04.644Z,59.71
2022-11-14T15:32:06.548Z,59.97
2022-11-14T15:34:07.849Z,59.84
2022-11-14T15:36:09.317Z,59.67
2022-11-14T15:38:42.062Z,59.69
2022-11-14T15:40:35.461Z,59.94
2022-11-14T15:42:40.485Z,59.90
2022-11-14T15:44:46.810Z,60.15
2022-11-14T15:46:48.188Z,59.67
2022-11-14T15:48:49.498Z,59.96
2022-11-14T15:50:50.871Z,59.52
2022-11-14T15:52:52.171Z,59.91
2022-11-14T15:54:53.532Z,59.91
2022-11-14T15:56:54.819Z,59.40
2022-11-14T15:58:56.100Z,59.31
2022-11-14T16:00:57.512Z,59.00
2022-11-14T16:02:58.882Z,58.88
2022-11-14T16:05:00.169Z,58.12
2022-11-14T16:07:01.552Z,58.19
2022-11-14T16:09:02.917Z,57.94
2022-11-14T16:11:04.217Z,58.00
2022-11-14T16:13:05.517Z,57.74
2022-11-14T16:15:06.800Z,57.88
2022-11-14T16:17:08.150Z,57.68
2022-11-14T16:19:09.485Z,57.86
2022-11-14T16:21:13.538Z,57.96
2022-11-14T16:23:14.941Z,58.15
2022-11-14T16:25:16.302Z,58.15
2022-11-14T16:27:17.593Z,57.75
2022-11-14T16:29:18.941Z,58.16
2022-11-14T16:31:20.649Z,57.78
2022-11-14T16:33:21.944Z,57.79
2022-11-14T16:35:23.258Z,57.70
2022-11-14T16:37:25.252Z,58.08
2022-11-14T16:39:26.762Z,58.72
2022-11-14T16:41:28.089Z,58.99
2022-11-14T16:43:29.655Z,59.02
2022-11-14T16:45:31.294Z,58.96
2022-11-14T16:47:32.881Z,59.83
2022-11-14T16:49:34.185Z,60.28
2022-11-14T16:51:51.258Z,60.75
2022-11-14T16:53:52.697Z,60.97
2022-11-14T16:55:56.505Z,61.52
2022-11-14T16:57:57.801Z,60.95
2022-11-14T16:59:59.165Z,60.60
2022-11-14T17:02:00.633Z,60.73
2022-11-14T17:04:01.986Z,60.86
2022-11-14T17:06:03.298Z,60.27
2022-11-14T17:08:04.590Z,60.01
2022-11-14T17:10:05.927Z,59.81
2022-11-14T17:12:07.197Z,60.33
2022-11-14T17:14:08.521Z,59.88
2022-11-14T17:16:09.832Z,59.71
2022-11-14T17:18:11.189Z,59.66
2022-11-14T17:20:12.478Z,60.03
2022-11-14T17:22:13.849Z,59.85
2022-11-14T17:24:15.141Z,60.14
2022-11-14T17:26:16.440Z,59.86
2022-11-14T17:28:17.749Z,60.07
2022-11-14T17:30:22.100Z,60.17
2022-11-14T17:32:23.736Z,59.79
2022-11-14T17:34:25.049Z,59.65
2022-11-14T17:36:26.379Z,59.61
2022-11-14T17:38:27.656Z,59.27
2022-11-14T17:40:32.100Z,60.19
2022-11-14T17:42:33.464Z,59.69
2022-11-14T17:44:34.897Z,58.93
2022-11-14T17:46:36.220Z,59.11
2022-11-14T17:48:40.461Z,59.20
2022-11-14T17:50:41.810Z,59.75
2022-11-14T17:52:43.132Z,59.40
2022-11-14T17:54:44.473Z,59.59
2022-11-14T17:56:48.633Z,59.82
2022-11-14T17:58:52.365Z,59.74
2022-11-14T18:00:53.910Z,59.72
2022-11-14T18:02:55.258Z,59.34
2022-11-14T18:04:56.551Z,59.35
2022-11-14T18:06:58.088Z,59.17
2022-11-14T18:09:04.759Z,59.39
2022-11-14T18:11:06.069Z,59.56
2022-11-14T18:13:08.135Z,59.92
2022-11-14T18:15:09.549Z,60.31
2022-11-14T18:17:13.430Z,60.62
2022-11-14T18:19:14.929Z,60.75
2022-11-14T18:21:16.225Z,60.47
2022-11-14T18:23:17.544Z,60.40
2022-11-14T18:25:18.846Z,60.52
2022-11-14T18:27:20.140Z,60.78
2022-11-14T18:29:21.452Z,60.61
2022-11-14T18:31:23.248Z,60.99
2022-11-14T18:33:24.765Z,60.66
2022-11-14T18:35:26.093Z,60.34
2022-11-14T18:37:27.993Z,61.05
2022-11-14T18:39:31.250Z,61.33
2022-11-14T18:41:32.594Z,61.02
2022-11-14T18:43:34.261Z,61.39
2022-11-14T18:45:35.774Z,61.92
2022-11-14T18:47:43.074Z,62.31
2022-11-14T18:49:44.980Z,62.12
2022-11-14T18:51:46.293Z,62.20
2022-11-14T18:53:47.587Z,61.93
2022-11-14T18:55:59.110Z,62.04
2022-11-14T18:58:00.413Z,61.70
2022-11-14T19:00:01.702Z,61.65
2022-11-14T19:02:21.332Z,61.38
2022-11-14T19:04:23.545Z,60.78
2022-11-14T19:06:24.870Z,60.89
2022-11-14T19:08:31.884Z,60.45
2022-11-14T19:10:33.170Z,60.47
2022-11-14T19:12:34.478Z,59.85
2022-11-14T19:14:42.682Z,59.95
2022-11-14T19:16:46.905Z,59.03
2022-11-14T19:18:54.200Z,58.20
2022-11-14T19:20:55.489Z,57.51
2022-11-14T19:22:56.792Z,57.70
2022-11-14T19:24:59.157Z,57.63
2022-11-14T19:27:03.318Z,57.74
2022-11-14T19:29:04.752Z,59.04
2022-11-14T19:31:06.302Z,60.00
2022-11-14T19:33:07.588Z,57.60
2022-11-14T19:35:09.440Z,58.20
2022-11-14T19:37:10.749Z,58.33
2022-11-14T19:39:12.048Z,58.55
2022-11-14T19:41:13.445Z,58.48
2022-11-14T19:43:14.721Z,58.76
2022-11-14T19:45:15.997Z,58.81
2022-11-14T19:47:17.285Z,59.13
2022-11-14T19:49:18.576Z,58.85
2022-11-14T19:51:20.000Z,59.24
2022-11-14T19:53:30.948Z,59.79
2022-11-14T19:55:35.371Z,59.71
2022-11-14T19:57:36.781Z,59.81
2022-11-14T19:59:41.158Z,60.48
2022-11-14T20:01:42.588Z,60.25
2022-11-14T20:03:43.936Z,59.92
2022-11-14T20:05:51.097Z,60.13
2022-11-14T20:07:55.630Z,60.32
2022-11-14T20:09:56.970Z,60.51
2022-11-14T20:11:58.279Z,60.36
2022-11-14T20:13:59.877Z,60.58
2022-11-14T20:16:01.232Z,60.57
2022-11-14T20:18:02.551Z,60.46
2022-11-14T20:20:06.758Z,60.11
2022-11-14T20:22:08.378Z,60.22
2022-11-14T20:24:09.893Z,60.42
2022-11-14T20:26:11.574Z,60.65
2022-11-14T20:28:13.139Z,61.35
2022-11-14T20:30:14.498Z,61.18
2022-11-14T20:32:16.077Z,61.28
2022-11-14T20:34:17.425Z,61.44
2022-11-14T20:36:18.833Z,56.31
2022-11-14T20:38:20.148Z,51.15
2022-11-14T20:40:21.517Z,51.62
2022-11-14T20:42:23.067Z,50.80
2022-11-14T20:44:24.377Z,52.48
2022-11-14T20:46:25.709Z,53.94
2022-11-14T20:48:27.065Z,53.59
2022-11-14T20:50:28.444Z,53.17
2022-11-14T20:52:30.932Z,53.62
2022-11-14T20:54:32.249Z,54.28
2022-11-14T20:56:33.609Z,54.61
2022-11-14T20:58:35.015Z,55.48
2022-11-14T21:00:36.344Z,56.29
2022-11-14T21:02:37.713Z,56.43
2022-11-14T21:04:39.034Z,56.76
2022-11-14T21:06:40.313Z,57.42
2022-11-14T21:08:41.602Z,58.08
2022-11-14T21:10:46.020Z,58.34
2022-11-14T21:13:07.316Z,58.65
2022-11-14T21:15:09.021Z,59.14
2022-11-14T21:17:10.310Z,59.34
2022-11-14T21:19:11.605Z,59.65
2022-11-14T21:21:13.057Z,59.95
2022-11-14T21:23:14.344Z,60.31
2022-11-14T21:25:15.650Z,60.77
2022-11-14T21:27:16.953Z,60.82
2022-11-14T21:29:18.272Z,61.18
2022-11-14T21:31:19.577Z,61.26
2022-11-14T21:33:20.921Z,61.58
2022-11-14T21:35:22.424Z,61.80
2022-11-14T21:37:23.696Z,61.77
2022-11-14T21:39:25.038Z,61.59
2022-11-14T21:41:26.368Z,61.91
2022-11-14T21:43:27.660Z,62.38
2022-11-14T21:45:29.017Z,62.36
2022-11-14T21:47:30.317Z,62.75
2022-11-14T21:49:31.643Z,62.64
2022-11-14T21:51:32.939Z,62.97
2022-11-14T21:53:34.454Z,63.07
2022-11-14T21:55:35.944Z,63.05
2022-11-14T21:57:37.278Z,63.41
2022-11-14T21:59:38.554Z,63.44
2022-11-14T22:01:58.453Z,63.69
2022-11-14T22:04:12.181Z,63.52
2022-11-14T22:06:13.477Z,63.33
2022-11-14T22:08:14.787Z,63.54
2022-11-14T22:10:16.066Z,63.50
2022-11-14T22:12:17.367Z,63.63
2022-11-14T22:14:18.670Z,63.93
2022-11-14T22:16:20.916Z,64.01
2022-11-14T22:18:22.239Z,64.16
2022-11-14T22:20:23.539Z,64.46
2022-11-14T22:22:24.843Z,63.95
2022-11-14T22:24:26.138Z,64.01
2022-11-14T22:26:27.429Z,64.30
2022-11-14T22:28:28.769Z,64.33
2022-11-14T22:30:30.069Z,64.48
2022-11-14T22:32:31.388Z,64.45
2022-11-14T22:34:32.730Z,64.67
2022-11-14T22:36:34.122Z,64.41
2022-11-14T22:38:35.457Z,64.65
2022-11-14T22:40:36.747Z,64.83
2022-11-14T22:42:38.104Z,64.70
2022-11-14T22:44:39.444Z,64.81
2022-11-14T22:46:40.772Z,64.81
2022-11-14T22:48:42.036Z,65.11
2022-11-14T22:50:43.326Z,64.97
2022-11-14T22:52:44.616Z,65.38
2022-11-14T22:54:45.906Z,65.03
2022-11-14T22:56:47.283Z,65.27
2022-11-14T22:58:48.602Z,65.17
2022-11-14T23:00:49.941Z,65.34
2022-11-14T23:02:51.254Z,65.39
2022-11-14T23:04:52.543Z,65.47
2022-11-14T23:06:53.896Z,65.52
2022-11-14T23:08:55.381Z,65.49
2022-11-14T23:10:57.133Z,65.66
2022-11-14T23:12:58.458Z,65.80
2022-11-14T23:14:59.765Z,65.87
2022-11-14T23:17:01.535Z,65.61
2022-11-14T23:19:02.863Z,65.74
2022-11-14T23:21:04.637Z,65.45
2022-11-14T23:23:05.946Z,65.50
2022-11-14T23:25:07.232Z,65.43
2022-11-14T23:27:08.532Z,65.56
2022-11-14T23:29:09.816Z,65.61
2022-11-14T23:31:11.095Z,65.69
2022-11-14T23:33:12.375Z,65.73
2022-11-14T23:35:13.666Z,65.92
2022-11-14T23:37:14.945Z,65.92
2022-11-14T23:39:16.238Z,65.83
2022-11-14T23:41:17.562Z,66.06
2022-11-14T23:43:18.849Z,66.02
2022-11-14T23:45:20.171Z,66.09
2022-11-14T23:47:21.467Z,66.20
2022-11-14T23:49:22.808Z,66.27
2022-11-14T23:51:24.173Z,66.15
2022-11-14T23:53:25.451Z,66.02
2022-11-14T23:55:26.746Z,66.19
2022-11-14T23:57:28.066Z,66.08
2022-11-14T23:59:29.350Z,66.20
